createdAt,value
2023-02-28T00:01:33.850Z,12.60
2023-02-28T00:04:01.144Z,10.75
2023-02-28T00:06:28.547Z,8.30
2023-02-28T00:08:55.687Z,13.70
2023-02-28T00:11:23.009Z,10.63
2023-02-28T00:13:50.637Z,11.07
2023-02-28T00:16:22.758Z,10.15
2023-02-28T00:18:51.004Z,8.35
2023-02-28T00:21:20.102Z,11.90
2023-02-28T00:23:47.685Z,10.77
2023-02-28T00:26:15.406Z,9.18
2023-02-28T00:28:42.472Z,13.82
2023-02-28T00:31:09.622Z,12.82
2023-02-28T00:33:36.671Z,10.82
2023-02-28T00:36:07.121Z,12.48
2023-02-28T00:38:34.252Z,8.55
2023-02-28T00:41:06.077Z,8.27
2023-02-28T00:43:35.159Z,14.30
2023-02-28T00:46:02.981Z,12.23
2023-02-28T00:48:29.986Z,11.82
2023-02-28T00:50:57.037Z,11.65
2023-02-28T00:53:24.190Z,13.88
2023-02-28T00:55:52.086Z,11.32
2023-02-28T00:58:19.450Z,10.77
2023-02-28T01:00:50.450Z,9.38
2023-02-28T01:03:19.424Z,9.27
2023-02-28T01:05:47.109Z,13.13
2023-02-28T01:08:15.110Z,10.88
2023-02-28T01:10:43.126Z,12.13
2023-02-28T01:13:10.152Z,13.25
2023-02-28T01:15:37.278Z,13.27
2023-02-28T01:18:04.386Z,12.77
2023-02-28T01:20:31.477Z,10.50
2023-02-28T01:22:59.173Z,12.55
2023-02-28T01:25:26.222Z,11.52
2023-02-28T01:27:53.289Z,12.52
2023-02-28T01:30:20.575Z,10.20
2023-02-28T01:32:47.677Z,13.05
2023-02-28T01:35:14.771Z,11.95
2023-02-28T01:37:41.776Z,13.98
2023-02-28T01:40:09.653Z,11.57
2023-02-28T01:42:36.738Z,9.38
2023-02-28T01:45:25.461Z,12.65
2023-02-28T01:47:57.498Z,11.75
2023-02-28T01:50:28.937Z,10.73
2023-02-28T01:52:58.326Z,11.93
2023-02-28T01:55:29.741Z,11.32
2023-02-28T01:58:01.346Z,10.32
2023-02-28T02:00:30.297Z,12.82
2023-02-28T02:03:01.362Z,14.15
2023-02-28T02:05:32.357Z,12.63
2023-02-28T02:08:14.656Z,9.50
2023-02-28T02:10:46.453Z,15.05
2023-02-28T02:13:34.220Z,12.70
2023-02-28T02:16:10.116Z,11.98
2023-02-28T02:18:53.332Z,13.90
2023-02-28T02:21:48.750Z,11.77
2023-02-28T02:24:15.755Z,8.27
2023-02-28T02:26:55.731Z,12.75
2023-02-28T02:29:41.311Z,7.80
2023-02-28T02:32:16.383Z,8.93
2023-02-28T02:34:56.185Z,12.77
2023-02-28T02:37:46.305Z,10.45
2023-02-28T02:40:23.181Z,9.52
2023-02-28T02:42:59.144Z,12.27
2023-02-28T02:45:53.184Z,13.55
2023-02-28T02:48:22.893Z,12.00
2023-02-28T02:50:57.781Z,12.25
2023-02-28T02:53:38.072Z,13.40
2023-02-28T02:56:07.039Z,11.60
2023-02-28T02:58:43.356Z,8.82
2023-02-28T03:01:15.759Z,13.65
2023-02-28T03:03:43.386Z,13.32
2023-02-28T03:06:11.394Z,14.40
2023-02-28T03:08:39.606Z,16.70
2023-02-28T03:11:13.433Z,15.55
2023-02-28T03:14:11.015Z,12.32
2023-02-28T03:16:40.834Z,15.38
2023-02-28T03:19:37.206Z,10.13
2023-02-28T03:22:10.316Z,10.80
2023-02-28T03:24:50.878Z,10.70
2023-02-28T03:27:59.287Z,11.05
2023-02-28T03:30:42.802Z,10.13
2023-02-28T03:33:24.391Z,11.02
2023-02-28T03:36:01.178Z,12.02
2023-02-28T03:39:15.529Z,11.60
2023-02-28T03:42:29.072Z,10.60
2023-02-28T03:45:08.799Z,15.00
2023-02-28T03:48:02.451Z,12.32
2023-02-28T03:50:41.922Z,13.32
2023-02-28T03:53:20.410Z,10.68
2023-02-28T03:55:51.270Z,12.95
2023-02-28T03:58:18.246Z,12.90
2023-02-28T04:00:50.633Z,12.70
2023-02-28T04:03:17.769Z,9.23
2023-02-28T04:05:54.299Z,13.90
2023-02-28T04:08:21.714Z,12.18
2023-02-28T04:11:02.655Z,8.93
2023-02-28T04:13:29.649Z,12.35
2023-02-28T04:15:56.725Z,12.15
2023-02-28T04:18:23.812Z,12.45
2023-02-28T04:20:50.863Z,10.63
2023-02-28T04:23:18.010Z,12.85
2023-02-28T04:25:45.104Z,11.57
2023-02-28T04:28:12.105Z,8.95
2023-02-28T04:30:40.322Z,9.45
2023-02-28T04:33:07.536Z,14.45
2023-02-28T04:35:34.589Z,12.65
2023-02-28T04:38:01.643Z,12.57
2023-02-28T04:40:28.790Z,13.93
2023-02-28T04:42:55.944Z,13.75
2023-02-28T04:45:22.982Z,10.60
2023-02-28T04:47:50.028Z,11.32
2023-02-28T04:50:17.180Z,19.40
2023-02-28T04:52:44.190Z,9.02
2023-02-28T04:55:11.485Z,13.85
2023-02-28T04:57:38.471Z,14.45
2023-02-28T05:00:08.008Z,14.68
2023-02-28T05:02:36.580Z,11.90
2023-02-28T05:05:03.789Z,15.43
2023-02-28T05:07:30.889Z,16.08
2023-02-28T05:09:57.901Z,13.50
2023-02-28T05:12:24.860Z,15.20
2023-02-28T05:14:51.953Z,13.00
2023-02-28T05:17:18.972Z,13.52
2023-02-28T05:19:45.983Z,15.70
2023-02-28T05:22:20.284Z,18.10
2023-02-28T05:24:47.359Z,11.65
2023-02-28T05:27:14.377Z,20.15
2023-02-28T05:29:44.476Z,12.77
2023-02-28T05:32:13.648Z,11.57
2023-02-28T05:34:41.093Z,14.75
2023-02-28T05:37:14.095Z,17.45
2023-02-28T05:39:41.168Z,14.43
2023-02-28T05:42:08.230Z,13.90
2023-02-28T05:44:35.204Z,14.27
2023-02-28T05:47:02.320Z,21.02
2023-02-28T05:49:29.478Z,16.20
2023-02-28T05:51:56.497Z,18.45
2023-02-28T05:54:23.626Z,17.80
2023-02-28T05:56:50.921Z,11.75
2023-02-28T05:59:17.922Z,16.27
2023-02-28T06:01:50.405Z,14.30
2023-02-28T06:04:31.209Z,14.80
2023-02-28T06:06:59.331Z,11.52
2023-02-28T06:09:26.395Z,19.73
2023-02-28T06:11:53.508Z,12.52
2023-02-28T06:14:21.430Z,14.80
2023-02-28T06:16:48.750Z,12.73
2023-02-28T06:19:16.626Z,9.70
2023-02-28T06:21:43.882Z,14.40
2023-02-28T06:24:11.176Z,14.82
2023-02-28T06:26:38.257Z,14.02
2023-02-28T06:29:05.334Z,13.77
2023-02-28T06:31:32.783Z,10.77
2023-02-28T06:34:00.008Z,17.25
2023-02-28T06:36:27.027Z,15.93
2023-02-28T06:38:56.559Z,14.55
2023-02-28T06:41:28.685Z,19.40
2023-02-28T06:43:56.286Z,12.45
2023-02-28T06:46:23.725Z,16.40
2023-02-28T06:48:51.200Z,12.05
2023-02-28T06:51:25.444Z,14.75
2023-02-28T06:53:52.646Z,16.02
2023-02-28T06:56:21.493Z,15.13
2023-02-28T06:58:50.419Z,15.35
2023-02-28T07:01:17.927Z,11.05
2023-02-28T07:03:44.948Z,13.63
2023-02-28T07:06:12.364Z,14.38
2023-02-28T07:08:41.341Z,10.43
2023-02-28T07:11:08.365Z,15.27
2023-02-28T07:13:35.321Z,14.55
2023-02-28T07:16:08.927Z,11.82
2023-02-28T07:18:36.531Z,15.70
2023-02-28T07:21:05.229Z,28.17
2023-02-28T07:23:32.264Z,16.58
2023-02-28T07:25:59.386Z,14.20
2023-02-28T07:28:26.884Z,13.00
2023-02-28T07:30:53.958Z,17.00
2023-02-28T07:33:21.020Z,23.15
2023-02-28T07:35:48.135Z,18.48
2023-02-28T07:38:15.165Z,12.13
2023-02-28T07:40:42.152Z,15.60
2023-02-28T07:43:09.242Z,14.15
2023-02-28T07:45:36.256Z,19.00
2023-02-28T07:48:03.357Z,14.65
2023-02-28T07:50:31.964Z,17.23
2023-02-28T07:53:02.135Z,11.10
2023-02-28T07:55:29.159Z,13.10
2023-02-28T07:57:57.593Z,15.00
2023-02-28T08:00:25.050Z,15.57
2023-02-28T08:02:52.393Z,13.20
2023-02-28T08:05:21.925Z,17.73
2023-02-28T08:07:50.809Z,17.40
2023-02-28T08:10:18.254Z,13.95
2023-02-28T08:12:45.284Z,16.63
2023-02-28T08:15:12.354Z,14.45
2023-02-28T08:17:39.431Z,13.35
2023-02-28T08:20:07.183Z,17.05
2023-02-28T08:22:34.203Z,14.52
2023-02-28T08:25:01.279Z,18.30
2023-02-28T08:27:28.247Z,13.93
2023-02-28T08:29:55.600Z,12.63
2023-02-28T08:32:30.628Z,16.48
2023-02-28T08:34:58.113Z,14.63
2023-02-28T08:37:25.405Z,13.73
2023-02-28T08:39:55.639Z,13.02
2023-02-28T08:42:23.699Z,16.02
2023-02-28T08:44:50.796Z,13.20
2023-02-28T08:47:18.086Z,12.32
2023-02-28T08:49:45.108Z,11.57
2023-02-28T08:52:12.142Z,15.35
2023-02-28T08:54:39.164Z,13.65
2023-02-28T08:57:06.398Z,13.73
2023-02-28T08:59:33.608Z,12.48
2023-02-28T09:02:00.805Z,19.60
2023-02-28T09:04:27.884Z,17.45
2023-02-28T09:06:54.901Z,14.45
2023-02-28T09:09:21.894Z,16.10
2023-02-28T09:11:48.880Z,14.10
2023-02-28T09:14:15.942Z,15.40
2023-02-28T09:16:42.942Z,16.83
2023-02-28T09:19:13.160Z,16.40
2023-02-28T09:21:40.517Z,14.65
2023-02-28T09:24:08.626Z,15.23
2023-02-28T09:26:43.110Z,16.92
2023-02-28T09:29:18.753Z,16.75
2023-02-28T09:31:46.528Z,17.52
2023-02-28T09:34:13.827Z,16.75
2023-02-28T09:36:45.590Z,16.55
2023-02-28T09:39:16.350Z,13.05
2023-02-28T09:41:51.898Z,18.42
2023-02-28T09:44:35.075Z,16.00
2023-02-28T09:47:14.334Z,19.55
2023-02-28T09:49:48.900Z,14.65
2023-02-28T09:52:25.338Z,16.38
2023-02-28T09:54:52.400Z,17.52
2023-02-28T09:57:42.806Z,22.30
2023-02-28T10:00:18.222Z,16.60
2023-02-28T10:03:01.856Z,13.85
2023-02-28T10:05:34.558Z,19.63
2023-02-28T10:08:06.367Z,16.50
2023-02-28T10:10:41.892Z,14.52
2023-02-28T10:13:30.621Z,15.25
2023-02-28T10:16:17.749Z,19.05
2023-02-28T10:19:04.772Z,16.50
2023-02-28T10:22:04.145Z,18.42
2023-02-28T10:24:36.055Z,12.90
2023-02-28T10:27:15.282Z,15.48
2023-02-28T10:29:46.338Z,20.15
2023-02-28T10:32:18.022Z,19.52
2023-02-28T10:34:45.329Z,18.08
2023-02-28T10:37:14.281Z,17.80
2023-02-28T10:39:46.934Z,16.83
2023-02-28T10:42:30.772Z,16.70
2023-02-28T10:45:14.623Z,22.83
2023-02-28T10:47:56.543Z,16.33
2023-02-28T10:50:59.063Z,14.27
2023-02-28T10:53:25.970Z,15.57
2023-02-28T10:56:11.224Z,15.00
2023-02-28T10:58:57.086Z,19.67
2023-02-28T11:01:41.956Z,18.20
2023-02-28T11:04:22.645Z,16.73
2023-02-28T11:07:02.921Z,17.50
2023-02-28T11:09:36.043Z,17.02
2023-02-28T11:12:08.706Z,15.15
2023-02-28T11:14:49.284Z,13.40
2023-02-28T11:17:25.509Z,20.58
2023-02-28T11:19:56.608Z,16.63
2023-02-28T11:22:29.931Z,13.30
2023-02-28T11:25:02.171Z,15.95
2023-02-28T11:27:32.545Z,17.75
2023-02-28T11:30:01.314Z,16.10
2023-02-28T11:32:31.671Z,15.65
2023-02-28T11:35:11.053Z,13.45
2023-02-28T11:37:39.818Z,15.65
2023-02-28T11:40:26.037Z,14.90
2023-02-28T11:43:21.899Z,13.75
2023-02-28T11:46:30.269Z,14.57
2023-02-28T11:49:05.725Z,12.02
2023-02-28T11:51:43.221Z,13.80
2023-02-28T11:54:50.142Z,15.85
2023-02-28T11:57:50.680Z,15.63
2023-02-28T12:00:35.671Z,20.88
2023-02-28T12:03:17.232Z,17.13
2023-02-28T12:06:12.098Z,18.08
2023-02-28T12:08:57.782Z,16.73
2023-02-28T12:11:39.571Z,20.88
2023-02-28T12:14:27.668Z,13.70
2023-02-28T12:17:08.373Z,15.25
2023-02-28T12:19:54.133Z,19.67
2023-02-28T12:22:31.630Z,18.70
2023-02-28T12:25:07.963Z,14.30
2023-02-28T12:27:40.416Z,12.35
2023-02-28T12:30:23.373Z,17.75
2023-02-28T12:33:05.250Z,12.18
2023-02-28T12:35:42.164Z,12.40
2023-02-28T12:38:22.437Z,14.85
2023-02-28T12:40:57.629Z,15.02
2023-02-28T12:43:33.825Z,13.13
2023-02-28T12:46:11.578Z,17.27
2023-02-28T12:49:22.910Z,19.02
2023-02-28T12:51:51.345Z,16.60
2023-02-28T12:54:45.464Z,14.95
2023-02-28T12:57:47.240Z,14.57
2023-02-28T13:00:18.950Z,15.80
2023-02-28T13:03:00.782Z,12.13
2023-02-28T13:06:00.114Z,13.52
2023-02-28T13:08:45.192Z,13.07
2023-02-28T13:11:34.919Z,15.75
2023-02-28T13:14:06.137Z,17.08
2023-02-28T13:16:58.970Z,15.27
2023-02-28T13:19:29.535Z,15.70
2023-02-28T13:21:57.988Z,13.30
2023-02-28T13:24:46.827Z,13.32
2023-02-28T13:27:16.500Z,12.85
2023-02-28T13:29:45.653Z,15.27
2023-02-28T13:32:35.306Z,12.40
2023-02-28T13:35:02.301Z,14.88
2023-02-28T13:37:30.725Z,14.20
2023-02-28T13:40:39.318Z,17.55
2023-02-28T13:43:10.097Z,14.45
2023-02-28T13:45:39.766Z,15.95
2023-02-28T13:48:30.081Z,13.30
2023-02-28T13:50:57.782Z,15.40
2023-02-28T13:53:57.612Z,12.48
2023-02-28T13:56:44.089Z,17.10
2023-02-28T13:59:39.947Z,11.02
2023-02-28T14:02:16.107Z,15.90
2023-02-28T14:05:03.266Z,14.52
2023-02-28T14:07:36.393Z,19.27
2023-02-28T14:10:09.884Z,16.55
2023-02-28T14:12:57.093Z,17.48
2023-02-28T14:15:32.271Z,11.55
2023-02-28T14:18:02.728Z,14.32
2023-02-28T14:20:34.533Z,12.68
2023-02-28T14:23:16.776Z,16.42
2023-02-28T14:26:07.961Z,12.30
2023-02-28T14:29:00.873Z,11.40
2023-02-28T14:31:39.877Z,13.07
2023-02-28T14:34:44.717Z,12.70
2023-02-28T14:37:17.727Z,17.75
2023-02-28T14:39:45.703Z,13.25
2023-02-28T14:42:44.952Z,10.88
2023-02-28T14:45:22.486Z,11.15
2023-02-28T14:47:52.096Z,11.57
2023-02-28T14:50:25.632Z,12.65
2023-02-28T14:52:56.441Z,12.00
2023-02-28T14:55:31.634Z,13.88
2023-02-28T14:58:05.549Z,13.05
2023-02-28T15:00:36.760Z,17.60
2023-02-28T15:03:21.911Z,12.25
2023-02-28T15:06:03.921Z,14.48
2023-02-28T15:08:36.499Z,15.95
2023-02-28T15:11:07.804Z,12.20
2023-02-28T15:13:42.926Z,13.23
2023-02-28T15:16:21.504Z,14.32
2023-02-28T15:18:58.546Z,13.10
2023-02-28T15:21:43.130Z,14.82
2023-02-28T15:24:25.621Z,12.65
2023-02-28T15:26:57.826Z,13.07
2023-02-28T15:29:28.632Z,12.32
2023-02-28T15:32:04.101Z,12.95
2023-02-28T15:34:43.461Z,17.17
2023-02-28T15:37:31.911Z,29.63
2023-02-28T15:40:06.970Z,13.95
2023-02-28T15:42:34.089Z,12.60
2023-02-28T15:45:01.174Z,18.40
2023-02-28T15:47:31.761Z,14.60
2023-02-28T15:50:11.709Z,15.95
2023-02-28T15:52:45.026Z,13.75
2023-02-28T15:55:27.659Z,13.18
2023-02-28T15:57:59.894Z,14.88
2023-02-28T16:00:35.366Z,22.70
2023-02-28T16:03:02.447Z,16.17
2023-02-28T16:05:33.093Z,15.00
2023-02-28T16:08:14.771Z,14.32
2023-02-28T16:10:41.939Z,18.85
2023-02-28T16:13:13.705Z,13.05
2023-02-28T16:15:45.610Z,16.73
2023-02-28T16:18:14.098Z,14.98
2023-02-28T16:20:41.420Z,14.13
2023-02-28T16:23:09.388Z,13.48
2023-02-28T16:25:47.436Z,16.05
2023-02-28T16:28:22.238Z,16.70
2023-02-28T16:30:52.157Z,13.75
2023-02-28T16:33:19.376Z,10.07
2023-02-28T16:35:46.885Z,9.75
2023-02-28T16:38:14.031Z,12.77
2023-02-28T16:40:41.657Z,11.20
2023-02-28T16:43:18.825Z,12.35
2023-02-28T16:45:46.475Z,13.13
2023-02-28T16:48:17.068Z,14.57
2023-02-28T16:50:46.305Z,27.05
2023-02-28T16:53:14.667Z,12.35
2023-02-28T16:55:42.041Z,12.35
2023-02-28T16:58:16.259Z,10.77
2023-02-28T17:00:45.104Z,14.30
2023-02-28T17:03:32.583Z,12.25
2023-02-28T17:06:02.026Z,12.40
2023-02-28T17:08:30.685Z,13.45
2023-02-28T17:10:58.037Z,13.40
2023-02-28T17:13:26.145Z,12.77
2023-02-28T17:15:55.674Z,12.85
2023-02-28T17:18:23.959Z,11.35
2023-02-28T17:20:51.378Z,14.02
2023-02-28T17:23:18.495Z,11.77
2023-02-28T17:25:57.761Z,12.40
2023-02-28T17:28:26.167Z,15.13
2023-02-28T17:30:55.147Z,15.73
2023-02-28T17:33:24.221Z,13.60
2023-02-28T17:35:52.350Z,15.88
2023-02-28T17:38:21.349Z,13.70
2023-02-28T17:40:49.409Z,14.13
2023-02-28T17:43:18.256Z,13.30
2023-02-28T17:45:46.090Z,17.98
2023-02-28T17:48:14.377Z,23.13
2023-02-28T17:50:43.405Z,17.90
2023-02-28T17:53:11.151Z,18.70
2023-02-28T17:55:38.505Z,16.27
2023-02-28T17:58:06.149Z,25.35
2023-02-28T18:00:34.865Z,18.13
2023-02-28T18:03:02.629Z,15.68
2023-02-28T18:05:30.952Z,17.23
2023-02-28T18:07:59.877Z,16.33
2023-02-28T18:10:28.507Z,14.75
2023-02-28T18:12:56.268Z,13.60
2023-02-28T18:15:23.916Z,14.02
2023-02-28T18:17:52.096Z,15.25
2023-02-28T18:20:20.210Z,16.13
2023-02-28T18:22:52.430Z,17.58
2023-02-28T18:25:25.065Z,13.02
2023-02-28T18:27:59.929Z,13.18
2023-02-28T18:30:34.256Z,18.58
2023-02-28T18:33:05.832Z,16.02
2023-02-28T18:35:37.286Z,25.88
2023-02-28T18:38:06.847Z,33.78
2023-02-28T18:40:36.458Z,25.75
2023-02-28T18:43:04.651Z,25.13
2023-02-28T18:45:32.760Z,18.35
2023-02-28T18:48:00.844Z,19.35
2023-02-28T18:50:31.578Z,19.95
2023-02-28T18:53:00.965Z,22.75
2023-02-28T18:55:30.431Z,15.55
2023-02-28T18:57:58.441Z,22.35
2023-02-28T19:00:26.855Z,14.48
2023-02-28T19:02:54.826Z,16.75
2023-02-28T19:05:22.189Z,27.95
2023-02-28T19:07:50.365Z,20.40
2023-02-28T19:10:18.759Z,17.77
2023-02-28T19:12:47.675Z,17.75
2023-02-28T19:15:15.348Z,16.67
2023-02-28T19:17:43.517Z,15.70
2023-02-28T19:20:14.737Z,22.15
2023-02-28T19:22:43.189Z,18.50
2023-02-28T19:25:13.461Z,21.20
2023-02-28T19:27:40.993Z,18.25
2023-02-28T19:30:10.311Z,22.77
2023-02-28T19:32:38.340Z,18.80
2023-02-28T19:35:06.828Z,18.52
2023-02-28T19:37:39.894Z,20.27
2023-02-28T19:40:09.652Z,18.10
2023-02-28T19:42:38.282Z,19.67
2023-02-28T19:45:10.862Z,23.10
2023-02-28T19:47:39.803Z,21.40
2023-02-28T19:50:10.532Z,27.67
2023-02-28T19:52:39.405Z,34.03
2023-02-28T19:55:08.317Z,22.13
2023-02-28T19:57:36.778Z,27.70
2023-02-28T20:00:04.908Z,26.02
2023-02-28T20:02:36.300Z,23.48
2023-02-28T20:05:04.240Z,23.73
2023-02-28T20:07:34.269Z,27.95
2023-02-28T20:10:02.025Z,24.67
2023-02-28T20:12:30.109Z,24.67
2023-02-28T20:14:58.293Z,27.88
2023-02-28T20:17:26.262Z,21.50
2023-02-28T20:19:53.978Z,20.02
2023-02-28T20:22:21.986Z,18.55
2023-02-28T20:24:50.093Z,18.40
2023-02-28T20:27:19.602Z,18.45
2023-02-28T20:29:47.293Z,23.10
2023-02-28T20:32:18.344Z,18.58
2023-02-28T20:34:46.755Z,19.88
2023-02-28T20:37:14.722Z,22.27
2023-02-28T20:39:42.075Z,14.55
2023-02-28T20:42:09.243Z,18.20
2023-02-28T20:44:37.945Z,19.02
2023-02-28T20:47:08.066Z,18.58
2023-02-28T20:49:35.941Z,19.80
2023-02-28T20:52:03.932Z,25.13
2023-02-28T20:54:31.309Z,19.48
2023-02-28T20:56:59.162Z,20.48
2023-02-28T20:59:27.595Z,30.00
2023-02-28T21:01:56.489Z,16.98
2023-02-28T21:04:24.326Z,20.15
2023-02-28T21:06:52.141Z,20.33
2023-02-28T21:09:20.619Z,21.35
2023-02-28T21:11:48.421Z,20.90
2023-02-28T21:14:17.340Z,25.23
2023-02-28T21:16:45.001Z,18.75
2023-02-28T21:19:12.924Z,17.77
2023-02-28T21:21:45.111Z,22.92
2023-02-28T21:24:13.361Z,17.65
2023-02-28T21:26:42.732Z,20.73
2023-02-28T21:29:10.394Z,21.17
2023-02-28T21:31:39.668Z,25.52
2023-02-28T21:34:08.882Z,16.90
2023-02-28T21:36:41.626Z,25.08
2023-02-28T21:39:13.387Z,32.72
2023-02-28T21:41:41.837Z,35.55
2023-02-28T21:44:09.850Z,51.38
2023-02-28T21:46:36.875Z,52.25
2023-02-28T21:49:04.057Z,34.10
2023-02-28T21:51:31.898Z,48.33
2023-02-28T21:54:00.356Z,36.35
2023-02-28T21:56:30.856Z,22.83
2023-02-28T21:59:02.113Z,24.73
2023-02-28T22:01:35.476Z,20.88
2023-02-28T22:04:04.428Z,18.30
2023-02-28T22:06:34.106Z,21.05
2023-02-28T22:09:03.169Z,20.63
2023-02-28T22:11:30.267Z,21.02
2023-02-28T22:13:59.360Z,24.83
2023-02-28T22:16:33.103Z,19.58
2023-02-28T22:19:05.377Z,27.05
2023-02-28T22:21:32.577Z,23.80
2023-02-28T22:24:00.101Z,24.30
2023-02-28T22:26:27.316Z,21.77
2023-02-28T22:28:54.374Z,29.17
2023-02-28T22:31:27.665Z,24.48
2023-02-28T22:34:00.062Z,29.00
2023-02-28T22:36:28.008Z,30.63
2023-02-28T22:38:55.439Z,29.50
2023-02-28T22:41:24.247Z,32.72
2023-02-28T22:43:57.821Z,31.88
2023-02-28T22:46:26.716Z,25.23
2023-02-28T22:48:54.100Z,26.50
2023-02-28T22:51:24.124Z,26.27
2023-02-28T22:53:52.711Z,24.13
2023-02-28T22:56:22.476Z,23.83
2023-02-28T22:58:53.019Z,27.55
2023-02-28T23:01:22.701Z,30.60
2023-02-28T23:03:50.329Z,28.73
2023-02-28T23:06:23.336Z,24.63
2023-02-28T23:08:52.602Z,23.05
2023-02-28T23:11:25.520Z,24.70
2023-02-28T23:13:58.964Z,29.85
2023-02-28T23:16:31.471Z,23.45
2023-02-28T23:19:00.087Z,31.75
2023-02-28T23:21:27.268Z,19.65
2023-02-28T23:23:55.050Z,24.80
2023-02-28T23:26:22.384Z,20.40
2023-02-28T23:28:50.036Z,30.42
2023-02-28T23:31:17.175Z,22.83
2023-02-28T23:33:44.204Z,22.98
2023-02-28T23:36:16.017Z,28.58
2023-02-28T23:38:47.642Z,22.98
2023-02-28T23:41:15.338Z,24.05
2023-02-28T23:43:42.851Z,30.00
2023-02-28T23:46:12.263Z,21.98
2023-02-28T23:48:40.262Z,21.80
2023-02-28T23:51:11.440Z,25.67
2023-02-28T23:53:41.367Z,24.20
2023-02-28T23:56:10.490Z,21.23
2023-02-28T23:58:37.714Z,24.80
